createdAt,value
2024-03-03T00:01:23.810Z,5.54
2024-03-03T00:03:51.473Z,5.51
2024-03-03T00:06:19.089Z,5.42
2024-03-03T00:08:46.594Z,5.44
2024-03-03T00:11:14.266Z,5.48
2024-03-03T00:13:42.063Z,5.47
2024-03-03T00:16:09.742Z,5.39
2024-03-03T00:18:40.167Z,5.44
2024-03-03T00:21:17.050Z,5.37
2024-03-03T00:23:44.776Z,5.39
2024-03-03T00:26:12.296Z,5.34
2024-03-03T00:28:39.804Z,5.31
2024-03-03T00:31:07.225Z,5.22
2024-03-03T00:33:34.852Z,5.25
2024-03-03T00:36:06.809Z,5.29
2024-03-03T00:38:35.861Z,5.21
2024-03-03T00:41:06.051Z,5.15
2024-03-03T00:43:33.744Z,5.18
2024-03-03T00:46:01.429Z,5.17
2024-03-03T00:48:29.328Z,5.26
2024-03-03T00:50:56.914Z,5.16
2024-03-03T00:53:24.531Z,5.11
2024-03-03T00:55:53.177Z,5.14
2024-03-03T00:58:22.075Z,5.12
2024-03-03T01:00:49.743Z,5.07
2024-03-03T01:03:17.418Z,5.02
2024-03-03T01:05:45.578Z,4.96
2024-03-03T01:08:13.216Z,4.90
2024-03-03T01:10:41.727Z,4.89
2024-03-03T01:13:09.297Z,4.89
2024-03-03T01:15:36.950Z,4.86
2024-03-03T01:18:05.267Z,4.80
2024-03-03T01:20:32.874Z,4.83
2024-03-03T01:23:00.499Z,4.88
2024-03-03T01:25:30.279Z,4.81
2024-03-03T01:27:57.965Z,4.75
2024-03-03T01:30:25.953Z,4.72
2024-03-03T01:32:53.496Z,4.73
2024-03-03T01:35:20.832Z,4.74
2024-03-03T01:37:48.275Z,4.71
2024-03-03T01:40:15.753Z,4.62
2024-03-03T01:42:43.395Z,4.55
2024-03-03T01:45:23.990Z,4.57
2024-03-03T01:47:53.367Z,4.45
2024-03-03T01:50:21.933Z,4.37
2024-03-03T01:52:52.044Z,4.31
2024-03-03T01:55:22.924Z,4.28
2024-03-03T01:57:54.377Z,4.26
2024-03-03T02:00:22.876Z,4.26
2024-03-03T02:02:51.023Z,4.26
2024-03-03T02:05:20.014Z,4.24
2024-03-03T02:07:48.107Z,4.27
2024-03-03T02:10:17.228Z,4.32
2024-03-03T02:12:48.056Z,4.23
2024-03-03T02:15:18.378Z,4.16
2024-03-03T02:17:46.037Z,4.11
2024-03-03T02:20:13.633Z,4.12
2024-03-03T02:22:41.162Z,4.11
2024-03-03T02:25:09.607Z,4.05
2024-03-03T02:27:38.357Z,4.04
2024-03-03T02:30:06.548Z,3.98
2024-03-03T02:32:34.281Z,3.90
2024-03-03T02:35:01.865Z,3.96
2024-03-03T02:37:29.570Z,3.96
2024-03-03T02:39:57.271Z,3.94
2024-03-03T02:42:24.823Z,3.94
2024-03-03T02:44:52.392Z,3.95
2024-03-03T02:47:19.863Z,3.92
2024-03-03T02:49:47.316Z,3.90
2024-03-03T02:52:14.827Z,3.86
2024-03-03T02:54:42.668Z,3.84
2024-03-03T02:57:10.264Z,3.83
2024-03-03T02:59:37.838Z,3.82
2024-03-03T03:02:05.910Z,3.80
2024-03-03T03:04:33.625Z,3.83
2024-03-03T03:07:01.179Z,3.77
2024-03-03T03:09:28.771Z,3.75
2024-03-03T03:11:56.246Z,3.74
2024-03-03T03:14:25.465Z,3.76
2024-03-03T03:16:53.048Z,3.74
2024-03-03T03:19:20.986Z,3.71
2024-03-03T03:21:49.052Z,3.72
2024-03-03T03:24:16.544Z,3.71
2024-03-03T03:26:43.945Z,3.73
2024-03-03T03:29:11.302Z,3.70
2024-03-03T03:31:38.649Z,3.62
2024-03-03T03:34:06.302Z,3.59
2024-03-03T03:36:33.862Z,3.59
2024-03-03T03:39:02.709Z,3.54
2024-03-03T03:41:30.476Z,3.54
2024-03-03T03:43:57.994Z,3.47
2024-03-03T03:46:25.583Z,3.42
2024-03-03T03:48:53.616Z,3.44
2024-03-03T03:51:21.124Z,3.45
2024-03-03T03:53:48.448Z,3.45
2024-03-03T03:56:15.860Z,3.49
2024-03-03T03:58:43.543Z,3.50
2024-03-03T04:01:23.819Z,3.52
2024-03-03T04:03:51.400Z,3.42
2024-03-03T04:06:18.726Z,3.38
2024-03-03T04:08:46.241Z,3.30
2024-03-03T04:11:13.772Z,3.30
2024-03-03T04:13:41.401Z,3.34
2024-03-03T04:16:09.109Z,3.39
2024-03-03T04:18:37.354Z,3.26
2024-03-03T04:21:05.272Z,3.27
2024-03-03T04:23:33.465Z,3.25
2024-03-03T04:26:06.502Z,3.20
2024-03-03T04:28:35.705Z,3.23
2024-03-03T04:31:09.521Z,3.22
2024-03-03T04:33:37.681Z,3.21
2024-03-03T04:36:12.968Z,3.24
2024-03-03T04:38:43.607Z,3.16
2024-03-03T04:41:19.098Z,3.12
2024-03-03T04:43:47.444Z,3.13
2024-03-03T04:46:15.233Z,3.14
2024-03-03T04:48:43.121Z,3.10
2024-03-03T04:51:10.663Z,3.16
2024-03-03T04:53:38.244Z,3.12
2024-03-03T04:56:05.754Z,3.05
2024-03-03T04:58:33.533Z,3.06
2024-03-03T05:01:01.079Z,3.02
2024-03-03T05:03:28.672Z,3.02
2024-03-03T05:05:55.932Z,3.02
2024-03-03T05:08:23.265Z,3.05
2024-03-03T05:10:52.191Z,3.12
2024-03-03T05:13:19.939Z,3.02
2024-03-03T05:15:47.601Z,2.97
2024-03-03T05:18:16.144Z,2.99
2024-03-03T05:20:43.653Z,2.98
2024-03-03T05:23:11.186Z,2.98
2024-03-03T05:25:38.509Z,2.95
2024-03-03T05:28:06.261Z,2.91
2024-03-03T05:30:38.220Z,2.84
2024-03-03T05:33:08.019Z,2.84
2024-03-03T05:35:38.012Z,2.86
2024-03-03T05:38:05.902Z,2.86
2024-03-03T05:40:33.477Z,2.82
2024-03-03T05:43:01.574Z,2.79
2024-03-03T05:45:29.245Z,2.78
2024-03-03T05:47:57.003Z,2.76
2024-03-03T05:50:24.539Z,2.78
2024-03-03T05:52:51.960Z,2.76
2024-03-03T05:55:19.432Z,2.75
2024-03-03T05:57:48.295Z,2.82
2024-03-03T06:00:17.305Z,2.83
2024-03-03T06:02:45.042Z,2.80
2024-03-03T06:05:12.585Z,2.82
2024-03-03T06:07:40.152Z,2.78
2024-03-03T06:10:08.854Z,2.80
2024-03-03T06:12:36.473Z,2.76
2024-03-03T06:15:04.084Z,2.75
2024-03-03T06:17:31.616Z,2.76
2024-03-03T06:19:59.124Z,2.80
2024-03-03T06:22:26.569Z,2.79
2024-03-03T06:24:54.045Z,2.76
2024-03-03T06:27:21.545Z,2.77
2024-03-03T06:29:49.112Z,2.73
2024-03-03T06:32:16.529Z,2.72
2024-03-03T06:34:48.414Z,2.64
2024-03-03T06:37:16.820Z,2.58
2024-03-03T06:39:45.686Z,2.53
2024-03-03T06:42:13.302Z,2.52
2024-03-03T06:44:41.306Z,2.53
2024-03-03T06:47:09.058Z,2.56
2024-03-03T06:49:36.637Z,2.57
2024-03-03T06:52:04.741Z,2.60
2024-03-03T06:54:32.190Z,2.60
2024-03-03T06:56:59.589Z,2.62
2024-03-03T06:59:28.559Z,2.65
2024-03-03T07:01:56.242Z,2.66
2024-03-03T07:04:26.991Z,2.68
2024-03-03T07:06:55.891Z,2.66
2024-03-03T07:09:24.575Z,2.75
2024-03-03T07:11:56.235Z,3.32
2024-03-03T07:14:25.088Z,4.26
2024-03-03T07:16:52.931Z,5.18
2024-03-03T07:19:20.581Z,6.05
2024-03-03T07:21:48.129Z,6.89
2024-03-03T07:24:16.323Z,7.60
2024-03-03T07:26:43.869Z,8.21
2024-03-03T07:29:11.584Z,8.72
2024-03-03T07:31:39.049Z,9.24
2024-03-03T07:34:06.659Z,9.72
2024-03-03T07:36:34.296Z,10.19
2024-03-03T07:39:03.258Z,10.69
2024-03-03T07:41:30.744Z,11.19
2024-03-03T07:43:58.248Z,11.68
2024-03-03T07:46:25.759Z,12.20
2024-03-03T07:48:53.515Z,12.68
2024-03-03T07:51:23.233Z,13.09
2024-03-03T07:53:50.958Z,13.47
2024-03-03T07:56:18.524Z,13.84
2024-03-03T07:58:46.074Z,14.25
2024-03-03T08:01:13.785Z,14.51
2024-03-03T08:03:41.479Z,14.77
2024-03-03T08:06:12.192Z,14.96
2024-03-03T08:08:39.677Z,15.08
2024-03-03T08:11:07.138Z,15.25
2024-03-03T08:13:34.718Z,15.51
2024-03-03T08:16:02.194Z,15.72
2024-03-03T08:18:29.920Z,15.92
2024-03-03T08:21:04.504Z,15.96
2024-03-03T08:23:35.418Z,15.91
2024-03-03T08:26:02.940Z,15.88
2024-03-03T08:28:30.554Z,15.83
2024-03-03T08:30:58.004Z,15.92
2024-03-03T08:33:25.551Z,16.00
2024-03-03T08:35:53.039Z,16.25
2024-03-03T08:38:20.656Z,16.40
2024-03-03T08:40:48.130Z,16.52
2024-03-03T08:43:15.732Z,16.59
2024-03-03T08:45:43.493Z,16.75
2024-03-03T08:48:11.080Z,16.75
2024-03-03T08:50:38.705Z,16.95
2024-03-03T08:53:07.221Z,17.09
2024-03-03T08:55:35.189Z,17.37
2024-03-03T08:58:02.865Z,17.40
2024-03-03T09:00:30.340Z,17.27
2024-03-03T09:02:58.064Z,17.31
2024-03-03T09:05:25.716Z,17.35
2024-03-03T09:07:54.811Z,17.51
2024-03-03T09:10:22.345Z,17.36
2024-03-03T09:12:49.839Z,17.24
2024-03-03T09:15:17.329Z,17.22
2024-03-03T09:17:45.412Z,17.34
2024-03-03T09:20:13.373Z,17.44
2024-03-03T09:22:41.022Z,17.56
2024-03-03T09:25:09.027Z,17.56
2024-03-03T09:27:37.018Z,17.64
2024-03-03T09:30:07.420Z,17.70
2024-03-03T09:32:36.842Z,17.65
2024-03-03T09:35:05.225Z,17.55
2024-03-03T09:37:32.978Z,17.57
2024-03-03T09:40:00.483Z,17.40
2024-03-03T09:42:28.149Z,17.43
2024-03-03T09:44:59.311Z,17.51
2024-03-03T09:47:29.631Z,17.38
2024-03-03T09:49:57.902Z,17.40
2024-03-03T09:52:27.370Z,17.45
2024-03-03T09:54:54.952Z,17.55
2024-03-03T09:57:23.315Z,17.58
2024-03-03T09:59:54.051Z,17.71
2024-03-03T10:02:26.057Z,17.85
2024-03-03T10:04:56.535Z,17.94
2024-03-03T10:07:24.845Z,17.89
2024-03-03T10:10:07.236Z,17.74
2024-03-03T10:12:35.079Z,17.69
2024-03-03T10:15:05.978Z,17.56
2024-03-03T10:17:33.639Z,17.64
2024-03-03T10:20:07.305Z,17.56
2024-03-03T10:22:41.776Z,17.37
2024-03-03T10:25:16.611Z,17.15
2024-03-03T10:27:46.774Z,16.80
2024-03-03T10:30:19.220Z,16.73
2024-03-03T10:32:48.817Z,16.97
2024-03-03T10:35:17.744Z,17.05
2024-03-03T10:38:03.291Z,17.21
2024-03-03T10:40:34.772Z,17.20
2024-03-03T10:43:02.374Z,17.06
2024-03-03T10:45:30.979Z,17.15
2024-03-03T10:47:58.907Z,17.31
2024-03-03T10:50:26.898Z,17.38
2024-03-03T10:52:54.600Z,17.53
2024-03-03T10:55:25.846Z,17.29
2024-03-03T10:57:55.256Z,16.81
2024-03-03T11:00:26.430Z,16.36
2024-03-03T11:02:56.290Z,15.85
2024-03-03T11:05:24.626Z,15.49
2024-03-03T11:07:52.346Z,15.35
2024-03-03T11:10:21.046Z,15.52
2024-03-03T11:12:51.779Z,15.72
2024-03-03T11:15:21.686Z,16.11
2024-03-03T11:18:13.763Z,16.53
2024-03-03T11:20:47.002Z,16.74
2024-03-03T11:23:21.950Z,16.91
2024-03-03T11:26:18.785Z,16.47
2024-03-03T11:28:49.890Z,16.01
2024-03-03T11:31:17.640Z,15.59
2024-03-03T11:33:45.832Z,15.31
2024-03-03T11:36:13.875Z,15.02
2024-03-03T11:38:43.832Z,14.77
2024-03-03T11:41:14.513Z,14.49
2024-03-03T11:43:43.063Z,14.45
2024-03-03T11:46:11.260Z,14.59
2024-03-03T11:48:42.889Z,14.93
2024-03-03T11:51:27.355Z,15.53
2024-03-03T11:54:08.555Z,15.94
2024-03-03T11:56:47.029Z,16.08
2024-03-03T11:59:15.432Z,15.88
2024-03-03T12:01:50.621Z,15.60
2024-03-03T12:04:18.402Z,15.19
2024-03-03T12:06:47.565Z,14.92
2024-03-03T12:09:18.370Z,14.70
2024-03-03T12:11:49.454Z,14.45
2024-03-03T12:14:17.396Z,14.44
2024-03-03T12:16:44.881Z,14.67
2024-03-03T12:19:14.868Z,15.02
2024-03-03T12:21:43.092Z,15.33
2024-03-03T12:24:14.867Z,15.74
2024-03-03T12:26:42.478Z,15.99
2024-03-03T12:29:10.411Z,15.88
2024-03-03T12:31:38.005Z,15.78
2024-03-03T12:34:05.844Z,15.56
2024-03-03T12:36:33.479Z,15.28
2024-03-03T12:39:01.297Z,14.88
2024-03-03T12:41:29.228Z,14.74
2024-03-03T12:44:07.792Z,14.54
2024-03-03T12:46:41.420Z,14.30
2024-03-03T12:49:09.274Z,14.24
2024-03-03T12:51:37.357Z,14.17
2024-03-03T12:54:05.538Z,14.10
2024-03-03T12:56:32.958Z,13.94
2024-03-03T12:59:01.543Z,13.81
2024-03-03T13:01:29.633Z,13.57
2024-03-03T13:03:57.975Z,13.14
2024-03-03T13:06:32.890Z,13.01
2024-03-03T13:09:10.991Z,12.84
2024-03-03T13:11:40.929Z,12.73
2024-03-03T13:14:15.404Z,12.74
2024-03-03T13:16:45.655Z,12.85
2024-03-03T13:19:15.906Z,12.84
2024-03-03T13:21:49.860Z,12.51
2024-03-03T13:24:20.254Z,12.32
2024-03-03T13:26:47.856Z,12.41
2024-03-03T13:29:15.333Z,12.62
2024-03-03T13:31:42.914Z,12.86
2024-03-03T13:34:10.623Z,13.06
2024-03-03T13:36:38.557Z,13.21
2024-03-03T13:39:11.391Z,13.24
2024-03-03T13:41:39.676Z,13.30
2024-03-03T13:44:08.210Z,13.39
2024-03-03T13:46:35.760Z,13.43
2024-03-03T13:49:03.870Z,13.42
2024-03-03T13:51:31.685Z,13.53
2024-03-03T13:53:59.088Z,13.52
2024-03-03T13:56:27.069Z,13.38
2024-03-03T13:58:54.516Z,13.36
2024-03-03T14:01:22.147Z,13.36
2024-03-03T14:03:49.575Z,13.39
2024-03-03T14:06:17.045Z,13.27
2024-03-03T14:08:44.670Z,13.10
2024-03-03T14:11:12.363Z,12.96
2024-03-03T14:13:39.786Z,12.93
2024-03-03T14:16:08.190Z,13.07
2024-03-03T14:18:36.067Z,13.10
2024-03-03T14:21:03.716Z,13.07
2024-03-03T14:23:31.608Z,13.01
2024-03-03T14:25:59.033Z,12.98
2024-03-03T14:28:26.413Z,12.99
2024-03-03T14:30:53.884Z,12.98
2024-03-03T14:33:21.350Z,12.87
2024-03-03T14:35:48.899Z,12.76
2024-03-03T14:38:19.117Z,12.73
2024-03-03T14:40:47.249Z,12.73
2024-03-03T14:43:14.661Z,12.71
2024-03-03T14:45:42.209Z,12.78
2024-03-03T14:48:09.755Z,12.80
2024-03-03T14:50:37.210Z,12.85
2024-03-03T14:53:05.282Z,12.85
2024-03-03T14:55:32.985Z,12.82
2024-03-03T14:58:00.712Z,12.80
2024-03-03T15:00:29.324Z,12.82
2024-03-03T15:02:56.818Z,12.71
2024-03-03T15:05:24.312Z,12.75
2024-03-03T15:07:52.475Z,12.72
2024-03-03T15:10:20.766Z,12.66
2024-03-03T15:12:48.582Z,12.66
2024-03-03T15:15:16.240Z,12.68
2024-03-03T15:17:44.593Z,12.70
2024-03-03T15:20:14.937Z,12.63
2024-03-03T15:22:42.548Z,12.72
2024-03-03T15:25:10.374Z,12.75
2024-03-03T15:27:38.513Z,12.74
2024-03-03T15:30:07.004Z,12.82
2024-03-03T15:32:34.932Z,12.82
2024-03-03T15:35:02.707Z,12.86
2024-03-03T15:37:34.887Z,12.97
2024-03-03T15:40:04.480Z,12.94
2024-03-03T15:42:31.904Z,12.91
2024-03-03T15:44:59.320Z,13.01
2024-03-03T15:47:27.008Z,12.94
2024-03-03T15:49:54.554Z,12.71
2024-03-03T15:52:22.277Z,12.58
2024-03-03T15:54:49.841Z,12.61
2024-03-03T15:57:17.928Z,12.66
2024-03-03T15:59:45.314Z,12.73
2024-03-03T16:02:12.695Z,12.77
2024-03-03T16:04:41.639Z,12.61
2024-03-03T16:07:09.214Z,12.60
2024-03-03T16:09:36.793Z,12.48
2024-03-03T16:12:04.881Z,12.28
2024-03-03T16:14:33.618Z,12.25
2024-03-03T16:17:01.300Z,12.29
2024-03-03T16:19:29.017Z,12.29
2024-03-03T16:21:56.679Z,12.23
2024-03-03T16:24:24.250Z,12.22
2024-03-03T16:26:51.898Z,12.21
2024-03-03T16:29:19.424Z,12.04
2024-03-03T16:31:47.702Z,11.81
2024-03-03T16:34:15.325Z,11.80
2024-03-03T16:36:43.818Z,11.90
2024-03-03T16:39:11.389Z,11.91
2024-03-03T16:41:38.901Z,11.90
2024-03-03T16:44:06.396Z,11.76
2024-03-03T16:46:34.008Z,11.61
2024-03-03T16:49:02.456Z,11.56
2024-03-03T16:51:30.068Z,11.39
2024-03-03T16:53:57.595Z,11.30
2024-03-03T16:56:25.098Z,11.43
2024-03-03T16:58:53.099Z,11.28
2024-03-03T17:01:20.946Z,11.24
2024-03-03T17:03:48.546Z,11.15
2024-03-03T17:06:16.829Z,11.19
2024-03-03T17:08:44.419Z,11.23
2024-03-03T17:11:11.920Z,11.12
2024-03-03T17:13:39.557Z,11.21
2024-03-03T17:16:07.984Z,11.03
2024-03-03T17:18:35.863Z,10.97
2024-03-03T17:21:06.080Z,10.95
2024-03-03T17:23:33.664Z,10.72
2024-03-03T17:26:01.130Z,10.73
2024-03-03T17:28:28.681Z,10.65
2024-03-03T17:30:56.313Z,10.54
2024-03-03T17:33:23.985Z,10.45
2024-03-03T17:35:51.461Z,10.38
2024-03-03T17:38:19.771Z,10.39
2024-03-03T17:40:47.307Z,10.19
2024-03-03T17:43:14.946Z,10.14
2024-03-03T17:45:43.121Z,9.98
2024-03-03T17:48:10.785Z,9.85
2024-03-03T17:50:38.662Z,9.75
2024-03-03T17:53:06.166Z,9.65
2024-03-03T17:55:33.928Z,9.59
2024-03-03T17:58:01.652Z,9.52
2024-03-03T18:00:29.201Z,9.51
2024-03-03T18:02:57.684Z,9.44
2024-03-03T18:05:25.416Z,9.36
2024-03-03T18:07:53.304Z,9.36
2024-03-03T18:10:20.816Z,9.39
2024-03-03T18:12:48.600Z,9.33
2024-03-03T18:15:16.161Z,9.26
2024-03-03T18:17:43.776Z,9.18
2024-03-03T18:20:11.684Z,9.16
2024-03-03T18:22:39.265Z,9.18
2024-03-03T18:25:07.130Z,9.12
2024-03-03T18:27:34.732Z,9.10
2024-03-03T18:30:02.424Z,9.07
2024-03-03T18:32:31.410Z,9.04
2024-03-03T18:35:00.536Z,9.19
2024-03-03T18:37:28.660Z,9.25
2024-03-03T18:39:57.075Z,9.24
2024-03-03T18:42:26.074Z,9.13
2024-03-03T18:44:56.384Z,8.96
2024-03-03T18:47:23.956Z,8.89
2024-03-03T18:49:51.726Z,8.77
2024-03-03T18:52:19.300Z,8.71
2024-03-03T18:54:52.850Z,8.63
2024-03-03T18:57:20.563Z,8.55
2024-03-03T18:59:48.097Z,8.48
2024-03-03T19:02:15.769Z,8.42
2024-03-03T19:04:43.362Z,8.33
2024-03-03T19:07:11.946Z,8.25
2024-03-03T19:09:41.915Z,8.21
2024-03-03T19:12:10.050Z,8.17
2024-03-03T19:14:37.544Z,8.15
2024-03-03T19:17:05.302Z,8.15
2024-03-03T19:19:33.007Z,8.14
2024-03-03T19:22:01.566Z,8.10
2024-03-03T19:24:30.241Z,8.06
2024-03-03T19:26:57.852Z,8.04
2024-03-03T19:29:26.435Z,7.92
2024-03-03T19:31:54.065Z,7.88
2024-03-03T19:34:22.818Z,7.75
2024-03-03T19:36:50.464Z,7.76
2024-03-03T19:39:17.939Z,7.78
2024-03-03T19:41:45.499Z,7.70
2024-03-03T19:44:14.091Z,7.64
2024-03-03T19:46:42.869Z,7.67
2024-03-03T19:49:12.472Z,7.70
2024-03-03T19:51:40.042Z,7.70
2024-03-03T19:54:07.522Z,7.82
2024-03-03T19:56:35.193Z,7.84
2024-03-03T19:59:02.888Z,7.85
2024-03-03T20:01:30.445Z,7.81
2024-03-03T20:03:58.434Z,7.75
2024-03-03T20:06:26.052Z,7.65
2024-03-03T20:08:53.703Z,7.62
2024-03-03T20:11:21.249Z,7.57
2024-03-03T20:13:48.845Z,7.49
2024-03-03T20:16:16.561Z,7.46
2024-03-03T20:18:47.358Z,7.46
2024-03-03T20:21:14.850Z,7.42
2024-03-03T20:23:42.270Z,7.39
2024-03-03T20:26:09.970Z,7.40
2024-03-03T20:28:37.540Z,7.44
2024-03-03T20:31:05.337Z,7.46
2024-03-03T20:33:32.886Z,7.47
2024-03-03T20:36:00.566Z,7.49
2024-03-03T20:38:28.063Z,7.50
2024-03-03T20:40:55.643Z,7.49
2024-03-03T20:43:23.207Z,7.37
2024-03-03T20:45:51.274Z,7.43
2024-03-03T20:48:19.868Z,7.40
2024-03-03T20:50:47.546Z,7.39
2024-03-03T20:53:16.532Z,7.44
2024-03-03T20:55:45.119Z,7.41
2024-03-03T20:58:12.729Z,7.43
2024-03-03T21:00:40.315Z,7.43
2024-03-03T21:03:07.823Z,7.64
2024-03-03T21:05:35.394Z,7.65
2024-03-03T21:08:02.948Z,7.52
2024-03-03T21:10:30.732Z,7.38
2024-03-03T21:12:58.869Z,7.33
2024-03-03T21:15:26.365Z,7.47
2024-03-03T21:17:53.820Z,7.51
2024-03-03T21:20:21.357Z,7.50
2024-03-03T21:22:48.856Z,7.52
2024-03-03T21:25:16.672Z,7.34
2024-03-03T21:27:44.263Z,7.22
2024-03-03T21:30:12.185Z,7.23
2024-03-03T21:32:39.777Z,7.09
2024-03-03T21:35:07.591Z,7.00
2024-03-03T21:37:35.650Z,6.97
2024-03-03T21:40:04.745Z,6.97
2024-03-03T21:42:32.279Z,7.04
2024-03-03T21:44:59.881Z,7.01
2024-03-03T21:47:27.564Z,6.95
2024-03-03T21:49:55.042Z,6.94
2024-03-03T21:52:22.410Z,6.88
2024-03-03T21:54:49.952Z,7.01
2024-03-03T21:57:17.992Z,6.91
2024-03-03T21:59:45.488Z,6.77
2024-03-03T22:02:12.882Z,6.71
2024-03-03T22:04:40.595Z,6.67
2024-03-03T22:07:08.751Z,6.65
2024-03-03T22:09:36.376Z,6.57
2024-03-03T22:12:04.123Z,6.44
2024-03-03T22:14:31.651Z,6.40
2024-03-03T22:16:59.104Z,6.40
2024-03-03T22:19:27.630Z,6.37
2024-03-03T22:21:55.360Z,6.38
2024-03-03T22:24:23.090Z,6.33
2024-03-03T22:26:50.532Z,6.30
2024-03-03T22:29:18.980Z,6.22
2024-03-03T22:31:46.528Z,6.15
2024-03-03T22:34:14.264Z,6.09
2024-03-03T22:36:41.920Z,6.02
2024-03-03T22:39:09.454Z,5.91
2024-03-03T22:41:37.025Z,5.83
2024-03-03T22:44:05.049Z,5.85
2024-03-03T22:46:32.902Z,5.89
2024-03-03T22:49:00.677Z,5.92
2024-03-03T22:51:28.227Z,5.87
2024-03-03T22:53:55.809Z,5.87
2024-03-03T22:56:23.377Z,5.90
2024-03-03T22:58:53.505Z,5.88
2024-03-03T23:01:21.492Z,5.80
2024-03-03T23:03:49.073Z,5.78
2024-03-03T23:06:16.397Z,5.68
2024-03-03T23:08:43.716Z,5.68
2024-03-03T23:11:11.824Z,5.61
2024-03-03T23:13:39.350Z,5.61
2024-03-03T23:16:07.668Z,5.62
2024-03-03T23:18:35.242Z,5.61
2024-03-03T23:21:02.736Z,5.59
2024-03-03T23:23:30.337Z,5.54
2024-03-03T23:25:58.094Z,5.49
2024-03-03T23:28:26.791Z,5.42
2024-03-03T23:30:54.481Z,5.38
2024-03-03T23:33:22.024Z,5.31
2024-03-03T23:35:49.523Z,5.18
2024-03-03T23:38:17.371Z,5.08
2024-03-03T23:40:45.119Z,5.06
2024-03-03T23:43:13.192Z,5.00
2024-03-03T23:45:40.691Z,5.02
2024-03-03T23:48:08.272Z,4.99
2024-03-03T23:50:35.877Z,5.14
2024-03-03T23:53:03.626Z,5.00
2024-03-03T23:55:31.235Z,4.98
2024-03-03T23:57:58.822Z,4.94
